Time;durP1;ratioP1;P1;durP2;ratioP2;P2;SDS_P1;SDS_P2;PMS_P1;PMS_P2;Temp;Humidity;BMP_temperature;BMP_pressure;BME280_temperature;BME280_humidity;BME280_pressure;Samples;Min_cycle;Max_cycle;Signal;HPM_P1;HPM_P2
2021/09/25 00:00:21;;;;;;;9.10;2.92;;;17.30;92.80;;;;;;5075817;28;20090;-53
2021/09/25 00:02:47;;;;;;;9.32;2.55;;;17.30;92.90;;;;;;5056514;28;20040;-51
2021/09/25 00:05:13;;;;;;;8.25;2.63;;;17.20;92.90;;;;;;5072714;28;20055;-52
2021/09/25 00:07:38;;;;;;;8.18;2.72;;;17.30;93.00;;;;;;5074903;28;20044;-51
2021/09/25 00:10:05;;;;;;;9.35;3.30;;;17.20;92.90;;;;;;5060074;28;20497;-53
2021/09/25 00:12:31;;;;;;;10.05;2.50;;;17.20;92.90;;;;;;5074381;28;20071;-53
2021/09/25 00:14:57;;;;;;;6.20;2.50;;;17.30;93.00;;;;;;5075242;28;20067;-53
2021/09/25 00:17:22;;;;;;;8.88;2.60;;;17.20;93.00;;;;;;5072442;28;20036;-51
2021/09/25 00:19:48;;;;;;;10.25;3.20;;;17.20;93.00;;;;;;5073883;28;20041;-53
2021/09/25 00:22:14;;;;;;;7.50;3.03;;;17.20;93.00;;;;;;5073639;28;20036;-52
2021/09/25 00:24:40;;;;;;;9.70;2.80;;;17.20;92.90;;;;;;5073228;28;20081;-55
2021/09/25 00:27:06;;;;;;;11.13;3.55;;;17.20;92.90;;;;;;5072798;28;20052;-49
2021/09/25 00:29:32;;;;;;;9.60;3.22;;;17.20;93.00;;;;;;5071389;28;20043;-50
2021/09/25 00:31:58;;;;;;;11.48;2.92;;;17.20;93.00;;;;;;5073661;28;20447;-53
2021/09/25 00:34:23;;;;;;;13.05;2.92;;;17.20;93.00;;;;;;5072670;28;20086;-51
2021/09/25 00:36:49;;;;;;;10.35;2.85;;;17.20;93.00;;;;;;5071679;28;20032;-51
2021/09/25 00:39:15;;;;;;;14.35;3.35;;;17.20;93.10;;;;;;5072273;28;20029;-52
2021/09/25 00:41:41;;;;;;;10.13;3.40;;;17.20;93.10;;;;;;5072881;28;20036;-53
2021/09/25 00:44:06;;;;;;;11.65;3.30;;;17.20;93.10;;;;;;5072287;28;20447;-51
2021/09/25 00:46:32;;;;;;;10.95;3.20;;;17.20;93.20;;;;;;5064641;28;20036;-53
2021/09/25 00:48:58;;;;;;;12.88;3.50;;;17.20;93.20;;;;;;5075351;28;20040;-51
2021/09/25 00:51:24;;;;;;;9.23;3.30;;;17.20;93.30;;;;;;5055885;28;20044;-52
2021/09/25 00:53:50;;;;;;;9.38;3.35;;;17.20;93.30;;;;;;5072549;28;20033;-52
2021/09/25 00:56:16;;;;;;;8.50;3.22;;;17.20;93.30;;;;;;5074671;28;20036;-51
2021/09/25 00:58:42;;;;;;;10.98;3.35;;;17.20;93.40;;;;;;5074104;28;20037;-53
2021/09/25 01:01:08;;;;;;;9.15;3.40;;;17.20;93.40;;;;;;5072824;28;20373;-53
2021/09/25 01:03:34;;;;;;;10.77;3.28;;;17.20;93.40;;;;;;5062166;28;20091;-53
2021/09/25 01:06:00;;;;;;;12.48;3.47;;;17.20;93.50;;;;;;5058983;28;20498;-53
2021/09/25 01:08:26;;;;;;;9.10;3.50;;;17.20;93.50;;;;;;5071729;28;20100;-53
2021/09/25 01:10:53;;;;;;;9.90;3.30;;;17.10;93.60;;;;;;5072939;28;20132;-54
2021/09/25 01:13:20;;;;;;;12.20;3.60;;;17.20;93.60;;;;;;5073222;28;20068;-55
2021/09/25 01:15:46;;;;;;;14.00;3.78;;;17.20;93.60;;;;;;5063810;28;20038;-53
2021/09/25 01:18:12;;;;;;;10.38;3.50;;;17.20;93.70;;;;;;5071280;28;20075;-53
2021/09/25 01:20:38;;;;;;;8.45;3.40;;;17.10;93.70;;;;;;5072883;28;20036;-53
2021/09/25 01:23:04;;;;;;;8.98;3.63;;;17.10;93.80;;;;;;5072798;28;20408;-53
2021/09/25 01:25:30;;;;;;;13.95;4.20;;;17.10;93.80;;;;;;5070461;28;20043;-53
2021/09/25 01:27:56;;;;;;;11.05;3.67;;;17.20;93.90;;;;;;5066831;28;20558;-55
2021/09/25 01:30:22;;;;;;;9.65;3.70;;;17.20;94.00;;;;;;5071729;28;20044;-55
2021/09/25 01:32:49;;;;;;;9.00;3.83;;;17.10;94.00;;;;;;5067553;28;20029;-55
2021/09/25 01:35:17;;;;;;;12.27;4.05;;;17.10;94.10;;;;;;5062932;28;20473;-53
2021/09/25 01:37:45;;;;;;;9.98;4.13;;;17.10;94.10;;;;;;5058753;28;20524;-54
2021/09/25 01:40:11;;;;;;;13.60;3.60;;;17.10;94.10;;;;;;5071737;28;20040;-53
2021/09/25 01:42:37;;;;;;;10.80;4.00;;;17.10;94.20;;;;;;5071477;28;20037;-52
2021/09/25 01:45:05;;;;;;;15.18;4.10;;;17.10;94.30;;;;;;5071317;28;20394;-54
2021/09/25 01:47:30;;;;;;;8.43;3.97;;;17.10;94.40;;;;;;5070859;28;20416;-53
2021/09/25 01:49:59;;;;;;;10.38;4.05;;;17.00;94.40;;;;;;5070954;28;20047;-55
2021/09/25 01:52:26;;;;;;;11.90;4.40;;;17.00;94.60;;;;;;5072668;28;20044;-53
2021/09/25 01:54:52;;;;;;;12.73;4.43;;;16.90;94.60;;;;;;5036035;28;20037;-53
2021/09/25 01:57:17;;;;;;;13.15;5.07;;;16.90;94.70;;;;;;5071530;28;20504;-52
2021/09/25 01:59:43;;;;;;;14.38;4.72;;;16.90;94.80;;;;;;5059420;28;20037;-51
2021/09/25 02:02:09;;;;;;;12.10;4.30;;;16.90;95.00;;;;;;5053313;28;20036;-54
2021/09/25 02:04:36;;;;;;;15.55;4.07;;;16.90;94.90;;;;;;5057458;28;20110;-54
2021/09/25 02:07:04;;;;;;;12.13;4.80;;;16.90;95.00;;;;;;5073210;28;20039;-50
2021/09/25 02:09:30;;;;;;;11.93;4.43;;;16.90;95.10;;;;;;5070814;28;20044;-53
2021/09/25 02:11:55;;;;;;;11.93;4.70;;;16.90;95.20;;;;;;5071163;28;20071;-53
2021/09/25 02:14:21;;;;;;;13.00;4.80;;;16.90;95.20;;;;;;5071460;28;20076;-53
2021/09/25 02:16:46;;;;;;;16.15;4.97;;;16.90;95.30;;;;;;5071567;28;20041;-51
2021/09/25 02:19:12;;;;;;;14.95;4.75;;;16.90;95.40;;;;;;5064940;28;20041;-53
2021/09/25 02:21:38;;;;;;;13.93;4.72;;;16.90;95.40;;;;;;5070688;28;20686;-49
2021/09/25 02:24:04;;;;;;;15.63;4.97;;;16.90;95.50;;;;;;5069722;28;20239;-53
2021/09/25 02:26:30;;;;;;;10.32;4.40;;;16.90;95.50;;;;;;5071914;28;20040;-53
2021/09/25 02:28:55;;;;;;;16.85;4.82;;;16.90;95.70;;;;;;5070985;28;20131;-53
2021/09/25 02:31:21;;;;;;;14.73;4.80;;;16.90;95.60;;;;;;5060568;28;20497;-54
2021/09/25 02:33:47;;;;;;;14.70;4.97;;;16.90;95.70;;;;;;5073356;28;20136;-54
2021/09/25 02:36:13;;;;;;;12.57;5.28;;;16.90;95.70;;;;;;5045409;28;20036;-54
2021/09/25 02:38:39;;;;;;;13.30;4.70;;;16.90;95.90;;;;;;5061403;28;20039;-53
2021/09/25 02:41:05;;;;;;;14.95;5.40;;;16.90;95.90;;;;;;5071207;28;20044;-52
2021/09/25 02:43:31;;;;;;;13.55;5.22;;;16.90;95.80;;;;;;5071467;28;20059;-55
2021/09/25 02:45:56;;;;;;;11.88;4.65;;;16.90;95.90;;;;;;5069931;28;20056;-54
2021/09/25 02:48:22;;;;;;;9.85;4.90;;;16.90;96.00;;;;;;5070299;28;20036;-53
2021/09/25 02:50:48;;;;;;;13.00;5.10;;;16.90;96.10;;;;;;5070654;28;20397;-55
2021/09/25 02:53:14;;;;;;;13.32;5.28;;;16.90;96.10;;;;;;5070134;28;20082;-55
2021/09/25 02:55:39;;;;;;;12.35;5.57;;;16.90;96.10;;;;;;5071589;28;20088;-53
2021/09/25 02:58:05;;;;;;;12.98;5.35;;;16.90;96.20;;;;;;5070746;28;20036;-54
2021/09/25 03:00:31;;;;;;;16.05;5.32;;;16.90;96.20;;;;;;5068975;28;20546;-55
2021/09/25 03:02:56;;;;;;;16.08;5.15;;;16.90;96.30;;;;;;5072284;28;20055;-54
2021/09/25 03:05:22;;;;;;;11.35;5.45;;;16.90;96.20;;;;;;5070473;28;20090;-55
2021/09/25 03:07:47;;;;;;;15.48;4.95;;;16.90;96.30;;;;;;5070570;28;20449;-54
2021/09/25 03:10:13;;;;;;;17.60;6.13;;;16.90;96.30;;;;;;5070112;28;20040;-54
2021/09/25 03:12:39;;;;;;;16.25;5.78;;;16.90;96.40;;;;;;5070969;28;20048;-53
2021/09/25 03:15:06;;;;;;;15.57;5.20;;;16.90;96.50;;;;;;5069527;28;20024;-56
2021/09/25 03:17:33;;;;;;;14.43;5.60;;;16.90;96.40;;;;;;5071008;28;20036;-56
2021/09/25 03:19:58;;;;;;;14.73;6.28;;;16.90;96.50;;;;;;5070339;28;20040;-54
2021/09/25 03:22:24;;;;;;;9.63;5.65;;;16.90;96.40;;;;;;5070362;28;20044;-55
2021/09/25 03:24:49;;;;;;;15.82;5.53;;;16.90;96.50;;;;;;5070308;28;20047;-56
2021/09/25 03:27:15;;;;;;;13.63;6.30;;;16.90;96.50;;;;;;5069543;28;20079;-55
2021/09/25 03:29:41;;;;;;;15.15;5.70;;;16.90;96.60;;;;;;5058961;28;20040;-51
2021/09/25 03:32:07;;;;;;;13.20;5.50;;;16.80;96.50;;;;;;5064822;28;20029;-51
2021/09/25 03:34:33;;;;;;;12.43;5.72;;;16.90;96.60;;;;;;5060141;28;20044;-51
2021/09/25 03:36:58;;;;;;;17.98;6.05;;;16.90;96.60;;;;;;5064823;28;20045;-54
2021/09/25 03:39:24;;;;;;;16.13;6.07;;;16.90;96.60;;;;;;5050756;28;20490;-50
2021/09/25 03:41:50;;;;;;;18.55;6.13;;;16.80;96.70;;;;;;5064911;28;20505;-49
2021/09/25 03:44:15;;;;;;;13.63;5.93;;;16.90;96.60;;;;;;5069456;28;20586;-51
2021/09/25 03:46:41;;;;;;;17.25;6.28;;;16.90;96.70;;;;;;5070875;28;20481;-49
2021/09/25 03:49:07;;;;;;;16.88;6.07;;;16.90;96.70;;;;;;5068856;28;20032;-50
2021/09/25 03:51:33;;;;;;;12.38;6.22;;;16.90;96.60;;;;;;5071638;28;20096;-52
2021/09/25 03:53:59;;;;;;;16.92;6.35;;;16.90;96.70;;;;;;5056136;28;20047;-53
2021/09/25 03:56:25;;;;;;;17.48;7.20;;;16.90;96.70;;;;;;5072825;28;20040;-53
2021/09/25 03:58:51;;;;;;;13.25;6.22;;;16.80;96.80;;;;;;5073436;28;20055;-52
2021/09/25 04:01:17;;;;;;;15.82;6.53;;;16.80;96.80;;;;;;5073473;28;20099;-49
2021/09/25 04:03:43;;;;;;;13.02;6.32;;;16.80;96.80;;;;;;5071856;28;20045;-49
2021/09/25 04:06:08;;;;;;;12.60;6.05;;;16.80;96.80;;;;;;5073358;28;20032;-49
2021/09/25 04:08:34;;;;;;;14.30;6.65;;;16.80;96.80;;;;;;5054687;28;20480;-49
2021/09/25 04:11:00;;;;;;;14.55;6.70;;;16.80;96.80;;;;;;5073008;28;20040;-52
2021/09/25 04:13:26;;;;;;;12.68;6.18;;;16.80;96.80;;;;;;5072962;28;20429;-52
2021/09/25 04:15:52;;;;;;;16.58;6.63;;;16.80;96.90;;;;;;5073382;28;20154;-51
2021/09/25 04:18:17;;;;;;;13.82;6.15;;;16.80;96.90;;;;;;5072616;28;20037;-51
2021/09/25 04:20:44;;;;;;;14.18;6.53;;;16.80;97.00;;;;;;5074007;28;20412;-51
2021/09/25 04:23:10;;;;;;;13.10;6.75;;;16.80;97.20;;;;;;5072649;28;20105;-52
2021/09/25 04:25:35;;;;;;;15.65;6.63;;;16.80;97.00;;;;;;5071673;28;20040;-52
2021/09/25 04:28:05;;;;;;;15.63;6.47;;;16.80;97.20;;;;;;5073109;28;20040;-53
2021/09/25 04:30:35;;;;;;;17.45;7.13;;;16.80;97.00;;;;;;5072607;28;20109;-51
2021/09/25 04:33:01;;;;;;;17.50;6.70;;;16.80;97.10;;;;;;5072951;28;20083;-50
2021/09/25 04:35:27;;;;;;;14.27;6.88;;;16.80;97.10;;;;;;5072310;28;20094;-52
2021/09/25 04:37:53;;;;;;;16.52;7.97;;;16.80;97.10;;;;;;5071734;28;20107;-51
2021/09/25 04:40:19;;;;;;;12.88;7.10;;;16.80;97.10;;;;;;5068516;28;20133;-50
2021/09/25 04:42:45;;;;;;;14.20;6.97;;;16.80;97.10;;;;;;5072707;28;20492;-50
2021/09/25 04:45:12;;;;;;;12.70;7.00;;;16.80;97.10;;;;;;5054333;28;20124;-50
2021/09/25 04:47:42;;;;;;;16.98;7.07;;;16.80;97.10;;;;;;5072110;28;20038;-52
2021/09/25 04:50:10;;;;;;;13.65;7.32;;;16.70;97.20;;;;;;5072902;28;20052;-51
2021/09/25 04:52:36;;;;;;;14.82;7.20;;;16.70;97.20;;;;;;5072425;28;20487;-55
2021/09/25 04:55:02;;;;;;;18.13;7.47;;;16.70;97.20;;;;;;5071884;28;20103;-53
2021/09/25 04:57:28;;;;;;;17.67;7.57;;;16.60;97.30;;;;;;5066169;28;20051;-53
2021/09/25 04:59:54;;;;;;;15.93;7.18;;;16.60;97.30;;;;;;5071988;28;20498;-52
2021/09/25 05:02:19;;;;;;;18.35;8.38;;;16.60;97.30;;;;;;5071672;28;20044;-51
2021/09/25 05:04:45;;;;;;;17.05;7.80;;;16.60;97.40;;;;;;5071253;28;20447;-51
2021/09/25 05:07:10;;;;;;;16.10;8.18;;;16.60;97.40;;;;;;5072374;28;20041;-52
2021/09/25 05:09:36;;;;;;;20.23;7.65;;;16.60;97.50;;;;;;5071076;28;20045;-54
2021/09/25 05:12:02;;;;;;;16.15;8.40;;;16.60;97.50;;;;;;5067938;28;20068;-52
2021/09/25 05:14:28;;;;;;;16.38;7.90;;;16.60;97.50;;;;;;5063757;28;20094;-51
2021/09/25 05:16:54;;;;;;;15.05;7.68;;;16.60;97.60;;;;;;5064434;28;20036;-55
2021/09/25 05:19:19;;;;;;;16.92;7.75;;;16.50;97.50;;;;;;5063998;28;20108;-56
2021/09/25 05:21:45;;;;;;;15.25;7.90;;;16.60;97.60;;;;;;5066189;28;20043;-55
2021/09/25 05:24:10;;;;;;;18.05;7.80;;;16.60;97.60;;;;;;5071159;28;20493;-55
2021/09/25 05:26:36;;;;;;;16.45;8.18;;;16.50;97.60;;;;;;5067942;28;20496;-55
2021/09/25 05:29:03;;;;;;;18.02;8.15;;;16.50;97.60;;;;;;5059772;28;20082;-55
2021/09/25 05:31:30;;;;;;;16.63;8.30;;;16.50;97.60;;;;;;5071852;28;20439;-55
2021/09/25 05:33:57;;;;;;;11.93;7.47;;;16.50;97.60;;;;;;5059087;28;20409;-55
2021/09/25 05:36:22;;;;;;;16.27;8.30;;;16.60;97.70;;;;;;5066194;28;20409;-55
2021/09/25 05:38:48;;;;;;;20.08;8.07;;;16.50;97.70;;;;;;5070589;28;20032;-56
2021/09/25 05:41:14;;;;;;;16.50;8.00;;;16.50;97.80;;;;;;5065330;28;20090;-55
2021/09/25 05:43:40;;;;;;;19.52;8.60;;;16.50;97.90;;;;;;5061949;28;20174;-56
2021/09/25 05:46:05;;;;;;;18.85;7.97;;;16.50;97.80;;;;;;5071080;28;20111;-56
2021/09/25 05:48:32;;;;;;;19.77;9.00;;;16.50;97.90;;;;;;5072092;28;20062;-56
2021/09/25 05:50:58;;;;;;;15.68;8.63;;;16.50;98.00;;;;;;5070487;28;20048;-56
2021/09/25 05:53:23;;;;;;;14.65;8.07;;;16.50;98.00;;;;;;5071395;28;20503;-56
2021/09/25 05:55:49;;;;;;;16.13;8.27;;;16.40;97.90;;;;;;5052596;28;20653;-55
2021/09/25 05:58:15;;;;;;;14.30;7.53;;;16.40;97.90;;;;;;5071214;28;20078;-56
2021/09/25 06:00:41;;;;;;;18.13;8.35;;;16.50;98.10;;;;;;5070313;28;20064;-56
2021/09/25 06:03:07;;;;;;;17.63;8.23;;;16.40;98.00;;;;;;5053157;28;20072;-55
2021/09/25 06:05:32;;;;;;;18.73;8.00;;;16.40;98.00;;;;;;5070338;28;20036;-55
2021/09/25 06:07:58;;;;;;;16.10;7.93;;;16.40;98.10;;;;;;5069439;28;20453;-55
2021/09/25 06:10:24;;;;;;;17.33;8.45;;;16.40;98.10;;;;;;5071367;28;20123;-56
2021/09/25 06:12:50;;;;;;;21.52;8.93;;;16.40;98.20;;;;;;5071013;28;20041;-53
2021/09/25 06:15:15;;;;;;;19.40;8.95;;;16.40;98.20;;;;;;5069922;28;20424;-55
2021/09/25 06:17:42;;;;;;;16.55;8.85;;;16.40;98.20;;;;;;5069984;28;20033;-55
2021/09/25 06:20:09;;;;;;;17.10;8.68;;;16.40;98.30;;;;;;5070298;28;20048;-55
2021/09/25 06:22:35;;;;;;;16.85;9.02;;;16.40;98.30;;;;;;5068472;28;20047;-55
2021/09/25 06:25:00;;;;;;;18.88;8.73;;;16.40;98.40;;;;;;5069398;28;20041;-54
2021/09/25 06:27:28;;;;;;;14.73;8.38;;;16.40;98.40;;;;;;5068612;28;20115;-54
2021/09/25 06:29:54;;;;;;;16.23;9.00;;;16.40;98.50;;;;;;5071387;28;20352;-55
2021/09/25 06:32:19;;;;;;;15.75;8.23;;;16.40;98.50;;;;;;5070469;28;20037;-55
2021/09/25 06:34:45;;;;;;;15.88;8.15;;;16.40;98.50;;;;;;5068434;28;20485;-56
2021/09/25 06:37:11;;;;;;;17.60;8.40;;;16.40;98.50;;;;;;5067842;28;20504;-55
2021/09/25 06:39:37;;;;;;;14.50;8.02;;;16.50;98.60;;;;;;5067317;28;20044;-55
2021/09/25 06:42:03;;;;;;;16.90;8.65;;;16.50;98.70;;;;;;5049567;28;20047;-55
2021/09/25 06:44:33;;;;;;;16.10;8.82;;;16.50;98.70;;;;;;5070210;28;20111;-55
2021/09/25 06:47:03;;;;;;;17.20;8.20;;;16.50;98.70;;;;;;5053482;28;20182;-53
2021/09/25 06:49:29;;;;;;;18.38;8.52;;;16.50;98.70;;;;;;5030595;28;20416;-55
2021/09/25 06:51:54;;;;;;;19.70;8.85;;;16.50;98.70;;;;;;5070085;28;20112;-55
2021/09/25 06:54:20;;;;;;;13.85;8.25;;;16.50;98.70;;;;;;5069850;28;20105;-55
2021/09/25 06:56:45;;;;;;;18.10;8.85;;;16.50;98.70;;;;;;5070223;28;20055;-55
2021/09/25 06:59:11;;;;;;;18.63;9.23;;;16.50;98.70;;;;;;5069935;28;20035;-54
2021/09/25 07:01:37;;;;;;;17.10;8.98;;;16.50;98.70;;;;;;5070153;28;20039;-55
2021/09/25 07:04:03;;;;;;;16.85;9.25;;;16.60;98.70;;;;;;5069850;28;20463;-56
2021/09/25 07:06:29;;;;;;;16.10;8.95;;;16.60;98.70;;;;;;5069686;28;20032;-55
2021/09/25 07:08:54;;;;;;;16.23;8.88;;;16.60;98.80;;;;;;5061483;28;20556;-55
2021/09/25 07:11:20;;;;;;;15.35;9.13;;;16.60;98.70;;;;;;5066880;28;20044;-56
2021/09/25 07:13:46;;;;;;;14.07;9.32;;;16.60;98.60;;;;;;5070418;28;20060;-56
2021/09/25 07:16:12;;;;;;;18.48;8.55;;;16.70;98.70;;;;;;5070324;28;20071;-56
2021/09/25 07:18:39;;;;;;;19.45;9.38;;;16.70;98.70;;;;;;5085799;28;20040;-53
2021/09/25 07:21:05;;;;;;;16.40;10.13;;;16.70;98.60;;;;;;5069910;28;20044;-56
2021/09/25 07:23:32;;;;;;;20.63;10.02;;;16.70;98.50;;;;;;5067315;28;20471;-55
2021/09/25 07:25:58;;;;;;;15.50;9.02;;;16.80;98.60;;;;;;5063022;28;20043;-55
2021/09/25 07:28:24;;;;;;;17.35;9.32;;;16.80;98.50;;;;;;5073855;28;20412;-55
2021/09/25 07:30:50;;;;;;;15.68;9.57;;;16.80;98.40;;;;;;5063735;28;20055;-54
2021/09/25 07:33:19;;;;;;;15.60;9.27;;;16.80;98.30;;;;;;5065395;28;20571;-54
2021/09/25 07:35:45;;;;;;;20.30;10.30;;;16.90;98.20;;;;;;5068297;28;20499;-55
2021/09/25 07:38:11;;;;;;;22.88;10.95;;;16.90;98.10;;;;;;5071135;28;20412;-55
2021/09/25 07:40:37;;;;;;;19.02;10.20;;;17.00;98.20;;;;;;5070762;28;20043;-55
2021/09/25 07:43:03;;;;;;;21.42;10.23;;;17.00;98.20;;;;;;5074239;28;20032;-55
2021/09/25 07:45:29;;;;;;;19.92;10.60;;;17.00;98.20;;;;;;5072558;28;20032;-52
2021/09/25 07:47:54;;;;;;;20.42;10.13;;;17.00;98.40;;;;;;5073463;28;20029;-55
2021/09/25 07:50:20;;;;;;;15.70;10.48;;;17.10;98.30;;;;;;5069269;28;20037;-54
2021/09/25 07:52:46;;;;;;;24.13;10.00;;;17.20;98.20;;;;;;5068963;28;20573;-55
2021/09/25 07:55:13;;;;;;;26.40;11.77;;;17.20;98.10;;;;;;5056049;28;20047;-55
2021/09/25 07:57:39;;;;;;;19.02;10.73;;;17.20;98.10;;;;;;5072496;28;20039;-55
2021/09/25 08:00:10;;;;;;;25.25;11.50;;;17.30;98.20;;;;;;5062034;28;20052;-55
2021/09/25 08:02:35;;;;;;;24.33;12.60;;;17.30;98.30;;;;;;5060851;28;20041;-55
2021/09/25 08:05:01;;;;;;;27.55;12.52;;;17.30;98.20;;;;;;5062183;28;20044;-55
2021/09/25 08:07:27;;;;;;;27.77;12.00;;;17.30;98.20;;;;;;5063456;28;20044;-55
2021/09/25 08:09:53;;;;;;;30.10;12.82;;;17.30;98.20;;;;;;5048007;28;20037;-55
2021/09/25 08:12:19;;;;;;;27.08;12.75;;;17.30;98.20;;;;;;5066609;28;20408;-55
2021/09/25 08:14:45;;;;;;;29.30;13.27;;;17.30;98.30;;;;;;5069491;28;20039;-55
2021/09/25 08:17:11;;;;;;;31.58;13.27;;;17.30;98.30;;;;;;5072435;28;20083;-53
2021/09/25 08:19:36;;;;;;;29.00;13.38;;;17.30;98.20;;;;;;5055035;28;20206;-55
2021/09/25 08:22:08;;;;;;;27.38;12.98;;;17.20;98.30;;;;;;5058832;28;20082;-55
2021/09/25 08:24:34;;;;;;;30.65;14.48;;;17.30;98.50;;;;;;5039034;28;20389;-53
2021/09/25 08:27:00;;;;;;;27.63;14.50;;;17.30;98.50;;;;;;5073880;28;20041;-53
2021/09/25 08:29:26;;;;;;;32.88;14.77;;;17.30;98.50;;;;;;5071190;28;20037;-51
2021/09/25 08:31:52;;;;;;;31.13;14.50;;;17.30;98.60;;;;;;5072148;28;20045;-53
2021/09/25 08:34:18;;;;;;;29.77;14.25;;;17.30;98.60;;;;;;5072417;28;20412;-51
2021/09/25 08:36:45;;;;;;;34.60;15.20;;;17.30;98.60;;;;;;5071944;28;20036;-56
2021/09/25 08:39:12;;;;;;;33.42;15.23;;;17.30;98.60;;;;;;5071658;28;20532;-56
2021/09/25 08:41:38;;;;;;;34.63;15.52;;;17.30;98.60;;;;;;5073129;28;20060;-56
2021/09/25 08:44:05;;;;;;;30.92;15.63;;;17.30;98.70;;;;;;5072552;28;20047;-56
2021/09/25 08:46:33;;;;;;;38.40;15.38;;;17.30;98.70;;;;;;5072523;28;20535;-56
2021/09/25 08:49:00;;;;;;;32.75;16.55;;;17.30;98.80;;;;;;5073576;28;20405;-55
2021/09/25 08:51:26;;;;;;;37.20;17.00;;;17.40;98.80;;;;;;5072293;28;20040;-54
2021/09/25 08:53:51;;;;;;;31.65;16.15;;;17.40;99.10;;;;;;5073142;28;20040;-54
2021/09/25 08:56:17;;;;;;;43.95;17.90;;;17.40;98.80;;;;;;5059744;28;20119;-55
2021/09/25 08:58:44;;;;;;;35.35;17.30;;;17.50;98.90;;;;;;5067095;28;20551;-55
2021/09/25 09:01:18;;;;;;;39.78;18.65;;;17.50;98.90;;;;;;5066609;28;20828;-55
2021/09/25 09:03:46;;;;;;;37.25;16.52;;;17.50;99.00;;;;;;5054378;28;20116;-55
2021/09/25 09:06:21;;;;;;;44.38;19.20;;;17.60;99.10;;;;;;5059774;28;20095;-54
2021/09/25 09:08:50;;;;;;;38.00;17.13;;;17.60;98.90;;;;;;5069862;28;20483;-55
2021/09/25 09:11:18;;;;;;;42.30;18.92;;;17.60;98.90;;;;;;5071185;28;20052;-55
2021/09/25 09:13:47;;;;;;;43.45;18.75;;;17.70;98.70;;;;;;5072475;28;20036;-55
2021/09/25 09:16:13;;;;;;;44.65;18.23;;;17.70;98.70;;;;;;5071992;28;20072;-55
2021/09/25 09:18:43;;;;;;;37.75;19.27;;;17.70;98.80;;;;;;5072095;28;20173;-55
2021/09/25 09:21:23;;;;;;;37.75;19.05;;;17.80;98.80;;;;;;5057280;28;20075;-55
2021/09/25 09:23:50;;;;;;;40.42;18.98;;;17.80;98.80;;;;;;5059650;28;20515;-56
2021/09/25 09:26:22;;;;;;;35.17;17.65;;;17.80;98.80;;;;;;5055844;28;20044;-56
2021/09/25 09:28:48;;;;;;;;;;;17.80;98.80;;;;;;5052771;28;20120;-54
2021/09/25 09:31:15;;;;;;;39.80;18.33;;;17.90;98.90;;;;;;5056969;28;20304;-53
2021/09/25 09:33:44;;;;;;;33.22;16.90;;;17.90;98.80;;;;;;5054917;28;20048;-54
2021/09/25 09:36:42;;;;;;;34.70;18.15;;;17.90;98.70;;;;;;5053893;28;20033;-54
2021/09/25 09:39:17;;;;;;;35.90;19.20;;;17.90;98.80;;;;;;5040758;28;20045;-54
2021/09/25 09:41:52;;;;;;;33.17;17.90;;;17.90;98.70;;;;;;5041915;28;20055;-56
2021/09/25 09:44:26;;;;;;;35.22;18.35;;;17.90;98.70;;;;;;5057750;28;20093;-50
2021/09/25 09:46:58;;;;;;;34.22;17.38;;;17.90;98.70;;;;;;5055994;28;20091;-50
2021/09/25 09:49:31;;;;;;;41.47;18.42;;;17.90;98.70;;;;;;5054518;28;20037;-51
2021/09/25 09:51:57;;;;;;;;;;;17.90;98.80;;;;;;5056816;28;20048;-53
2021/09/25 09:54:29;;;;;;;31.30;17.17;;;17.90;98.90;;;;;;5057741;28;19931;-53
2021/09/25 09:56:57;;;;;;;36.45;18.25;;;18.00;98.80;;;;;;5040729;28;20116;-54
2021/09/25 09:59:23;;;;;;;39.72;18.10;;;18.00;98.70;;;;;;5058032;28;20111;-54
2021/09/25 10:01:50;;;;;;;35.08;17.63;;;18.00;98.60;;;;;;5054485;28;20044;-54
2021/09/25 10:04:16;;;;;;;32.40;17.30;;;18.00;98.60;;;;;;5053627;28;20033;-56
2021/09/25 10:06:42;;;;;;;33.33;16.92;;;18.00;98.60;;;;;;5056142;28;20065;-53
2021/09/25 10:09:17;;;;;;;30.08;16.77;;;18.00;98.60;;;;;;5059058;28;20037;-54
2021/09/25 10:11:47;;;;;;;34.78;16.70;;;18.00;98.60;;;;;;5055609;28;20037;-54
2021/09/25 10:14:22;;;;;;;34.50;17.67;;;18.00;98.60;;;;;;5053424;28;20155;-51
2021/09/25 10:16:48;;;;;;;34.05;18.30;;;18.10;98.60;;;;;;5061640;28;20053;-52
2021/09/25 10:19:17;;;;;;;39.45;17.65;;;18.10;98.50;;;;;;5053845;28;20080;-54
2021/09/25 10:21:45;;;;;;;39.45;19.63;;;18.10;98.50;;;;;;5053883;28;20142;-54
2021/09/25 10:24:35;;;;;;;42.90;18.05;;;18.10;98.50;;;;;;5073869;28;20044;-54
2021/09/25 10:27:03;;;;;;;40.22;19.98;;;18.20;98.40;;;;;;5054285;28;20083;-51
2021/09/25 10:29:30;;;;;;;40.88;20.33;;;18.20;98.30;;;;;;5061285;28;20037;-54
2021/09/25 10:32:14;;;;;;;38.20;20.58;;;18.20;98.20;;;;;;5057039;28;20389;-55
2021/09/25 10:35:01;;;;;;;38.30;20.02;;;18.20;97.90;;;;;;5054530;28;20111;-54
2021/09/25 10:37:37;;;;;;;36.00;20.33;;;18.20;98.10;;;;;;5061149;28;20033;-55
2021/09/25 10:40:04;;;;;;;36.00;19.38;;;18.20;98.10;;;;;;5053437;28;20041;-53
2021/09/25 10:42:55;;;;;;;34.78;21.10;;;18.30;98.10;;;;;;5052836;28;20109;-55
2021/09/25 10:45:36;;;;;;;37.58;20.05;;;18.30;98.00;;;;;;5053962;28;20067;-53
2021/09/25 10:48:17;;;;;;;38.00;20.33;;;18.30;98.10;;;;;;5056869;28;20468;-53
2021/09/25 10:51:01;;;;;;;37.47;21.95;;;18.30;98.20;;;;;;5056060;28;20093;-54
2021/09/25 10:53:37;;;;;;;45.40;21.92;;;18.40;98.20;;;;;;5057247;28;20032;-57
2021/09/25 10:56:05;;;;;;;40.53;21.30;;;18.40;98.10;;;;;;5062057;28;20032;-53
2021/09/25 10:58:37;;;;;;;42.85;22.50;;;18.40;98.00;;;;;;5057689;28;20037;-56
2021/09/25 11:01:13;;;;;;;;;;;18.40;97.90;;;;;;5025851;28;20135;-56
2021/09/25 11:06:27;;;;;;;38.85;21.35;;;18.40;97.90;;;;;;5062204;28;20044;-56
2021/09/25 11:08:57;;;;;;;42.03;21.58;;;18.40;97.80;;;;;;5060768;28;20047;-56
2021/09/25 11:11:54;;;;;;;39.42;21.50;;;18.50;97.80;;;;;;5061305;28;20566;-55
2021/09/25 11:14:20;;;;;;;45.00;21.83;;;18.50;97.80;;;;;;5060297;28;20807;-55
2021/09/25 11:17:05;;;;;;;40.53;22.75;;;18.60;97.70;;;;;;5065591;28;20025;-52
2021/09/25 11:19:35;;;;;;;35.50;20.35;;;18.60;97.70;;;;;;5073231;28;20387;-56
2021/09/25 11:22:05;;;;;;;39.75;22.35;;;18.70;97.70;;;;;;5056286;28;20048;-56
2021/09/25 11:24:38;;;;;;;38.33;22.10;;;18.70;97.60;;;;;;5071364;28;20044;-55
2021/09/25 11:27:19;;;;;;;37.40;21.30;;;18.70;97.60;;;;;;5070218;28;20044;-56
2021/09/25 11:29:55;;;;;;;40.25;22.30;;;18.70;97.70;;;;;;5073913;28;20041;-56
2021/09/25 11:32:26;;;;;;;39.28;21.85;;;18.70;97.60;;;;;;5072293;28;20036;-56
2021/09/25 11:34:52;;;;;;;41.05;21.77;;;18.70;97.40;;;;;;5073900;28;20108;-56
2021/09/25 11:37:18;;;;;;;35.65;21.88;;;18.70;97.40;;;;;;5073099;28;20052;-56
2021/09/25 11:39:46;;;;;;;42.72;22.48;;;18.70;97.40;;;;;;5073849;28;20033;-57
2021/09/25 11:42:19;;;;;;;40.95;22.85;;;18.70;97.50;;;;;;5073573;28;20535;-56
2021/09/25 11:44:54;;;;;;;37.75;22.10;;;18.80;97.60;;;;;;5071446;28;20040;-56
2021/09/25 11:47:37;;;;;;;39.70;21.27;;;18.90;97.50;;;;;;5067323;28;20115;-56
2021/09/25 11:50:22;;;;;;;41.60;23.85;;;18.90;97.60;;;;;;5063787;28;20052;-56
2021/09/25 11:52:52;;;;;;;42.10;24.35;;;19.00;97.50;;;;;;5082727;28;20397;-56
2021/09/25 11:55:24;;;;;;;43.97;23.63;;;19.10;97.20;;;;;;5061658;28;20033;-56
2021/09/25 11:57:56;;;;;;;43.30;23.90;;;19.10;97.10;;;;;;5054287;28;20440;-56
2021/09/25 12:00:37;;;;;;;42.17;23.50;;;19.20;97.00;;;;;;5059572;28;20122;-56
2021/09/25 12:03:05;;;;;;;42.78;23.63;;;19.20;96.80;;;;;;5059663;28;20048;-56
2021/09/25 12:05:30;;;;;;;41.47;25.02;;;19.10;96.90;;;;;;5052829;28;20802;-56
2021/09/25 12:07:59;;;;;;;43.30;24.98;;;19.10;96.70;;;;;;5059836;28;20048;-56
2021/09/25 12:10:31;;;;;;;43.05;25.30;;;19.10;96.60;;;;;;5048350;28;20555;-55
2021/09/25 12:13:04;;;;;;;38.38;22.73;;;19.10;96.60;;;;;;5062518;28;20032;-56
2021/09/25 12:15:33;;;;;;;41.85;23.38;;;19.10;96.60;;;;;;5066870;28;20036;-57
2021/09/25 12:18:18;;;;;;;40.97;25.25;;;19.20;96.70;;;;;;5063175;28;20048;-56
2021/09/25 12:20:45;;;;;;;41.30;24.63;;;19.20;96.80;;;;;;5072045;28;20420;-55
2021/09/25 12:23:15;;;;;;;42.08;24.27;;;19.20;96.60;;;;;;5070693;28;20155;-56
2021/09/25 12:25:41;;;;;;;42.67;23.20;;;19.20;96.70;;;;;;5067990;28;20502;-56
2021/09/25 12:28:29;;;;;;;38.45;24.30;;;19.20;96.70;;;;;;5068636;28;20040;-55
2021/09/25 12:31:04;;;;;;;45.13;23.98;;;19.20;96.60;;;;;;5061742;28;20040;-55
2021/09/25 12:33:30;;;;;;;42.33;23.95;;;19.20;96.70;;;;;;5069182;28;20116;-56
2021/09/25 12:36:03;;;;;;;39.10;24.70;;;19.20;96.70;;;;;;5069554;28;20067;-55
2021/09/25 12:38:38;;;;;;;37.90;24.95;;;19.20;96.50;;;;;;5071995;28;20036;-56
2021/09/25 12:41:07;;;;;;;40.30;24.42;;;19.30;96.60;;;;;;5071836;28;20516;-56